Frisco, TX

7:09 PM CDT en Abril 01, 2015 (GMT -0500)
Toyota Stadium | | Change Station
CLOSE
Current Station
Estación meteorológica personal
Location: Frisco, TX
Altura: 623 ft
Estaciones meteorológicas cercanas

Alt 623 ft 33.16 °N, 96.84 °W | Updated 4 minutes ago

Nublado
Nublado
75.2 ° F
Sensación térmica 77 ° F
N
7.0
Viento Variable Viento desde SSO

Hoy
Alta -- | Baja -- ° F
--% Posibilidad de precipitaciones
Ayer
Alta -- | Baja -- ° F
Precip. -- pul
7:15 AM 7:47 PM
Gibosa creciente, 94% visible
Presión 29.84 pul
Visibilidad 12.0 Millas
Nubes Muy nublado 4500 ft
Muy nublado 6000 ft
Índice de calor 77 ° F
Punto de rocío 66 ° F
Humedad 73%
Precipitaciones 0.02 pul
Espesor de la nieve No disponible.
UV 1 de una escala de 12
Polen 11.70 de una escala de 12
Calidad del aire No disponible.
Flu Activity No disponible.
METAR KADS 012247Z 15013G19KT 12SM BKN045 BKN060 24/16 A2984

More Conditions Fewer Conditions

Presión 29.84 pul
Visibilidad 12.0 Millas
Nubes Muy nublado 4500 ft
Muy nublado 6000 ft
Índice de calor 77 ° F
Punto de rocío 66 ° F
Humedad 73%
Precipitaciones 0.02 pul
Espesor de la nieve No disponible.
UV 1 de una escala de 12
Polen 11.70 de una escala de 12
Calidad del aire No disponible.
Flu Activity No disponible.
METAR KADS 012247Z 15013G19KT 12SM BKN045 BKN060 24/16 A2984

More Conditions Fewer Conditions

Nowcast | as of 6:50 PM CDT on April 1, 2015

Scattered showers and thunderstorms will continue into the evening hours. But as temperatures cool and a disturbance aloft shifts east of the region...the activity will come to an end after nightfall. In the meantime...some of the storms could become severe...with large hail...strong gusty winds...and frequent cloud-to-ground lightning. Move indoors immediately if lightning is seen or thunder is heard. Outside of rain areas...mild and breezy conditions will prevail... with temperatures generally in the 70s.

×

10-Day Weather Forecast

Almanac

Astronomía

Apr. 01, 2015 Salida Puesta
Hora real
Crepúsculo civil
Crepúsculo náutico
Crepúsculo astronómico
Luna
Horas de luz
Horas de luz
Tomorrow will be .
, % of the Moon is Illuminated

Extremos de hoy

Máximos del estado Bajos del estado

Community

WunderPhotos

Upload Photos

1,810,130 ¡fotos cargadas!

WunderBlogs® & News

Nearby

Calidad del aire

  Calidad del aire Índice AQ Contaminante
Not available.

Grosos de nieve

Estación Profundido Altura

Actividad de terremotos

Ciudad Distance Mag. Tiempo y dato
Magnitud mínima muestra es 2,5.

Temperaturas de aguas costeras

Lugar Temperatura

Stations

Estaciones meteorológicas cercanas

Ubicación de la estación Temp. Vientos helados Punto de rocío Humedad Viento Precip. Alt Actualizado Tipo